createdAt,value
2022-11-30T00:00:45.559Z,0.00
2022-11-30T00:01:45.679Z,0.00
2022-11-30T00:02:45.925Z,0.00
2022-11-30T00:03:46.008Z,0.00
2022-11-30T00:04:46.510Z,0.00
2022-11-30T00:05:46.363Z,0.00
2022-11-30T00:06:46.547Z,0.00
2022-11-30T00:07:46.868Z,0.00
2022-11-30T00:08:46.896Z,0.00
2022-11-30T00:09:47.088Z,0.00
2022-11-30T00:10:47.226Z,0.00
2022-11-30T00:11:47.405Z,0.00
2022-11-30T00:12:47.596Z,0.00
2022-11-30T00:13:47.746Z,0.00
2022-11-30T00:14:48.121Z,0.00
2022-11-30T00:15:48.088Z,0.00
2022-11-30T00:16:48.292Z,0.00
2022-11-30T00:17:48.449Z,0.00
2022-11-30T00:18:48.652Z,0.00
2022-11-30T00:19:48.813Z,0.00
2022-11-30T00:20:48.957Z,0.00
2022-11-30T00:21:49.137Z,0.00
2022-11-30T00:22:49.318Z,0.00
2022-11-30T00:23:49.505Z,0.00
2022-11-30T00:24:49.878Z,0.00
2022-11-30T00:25:49.863Z,0.00
2022-11-30T00:26:50.044Z,0.00
2022-11-30T00:27:50.234Z,0.00
2022-11-30T00:28:50.424Z,0.00
2022-11-30T00:29:50.584Z,0.00
2022-11-30T00:30:50.816Z,0.00
2022-11-30T00:31:50.917Z,0.00
2022-11-30T00:32:51.106Z,0.00
2022-11-30T00:33:51.284Z,0.00
2022-11-30T00:34:51.491Z,0.00
2022-11-30T00:35:51.642Z,0.00
2022-11-30T00:36:51.928Z,0.00
2022-11-30T00:37:52.004Z,0.00
2022-11-30T00:38:52.176Z,0.00
2022-11-30T00:39:52.363Z,0.00
2022-11-30T00:40:52.549Z,0.00
2022-11-30T00:41:52.724Z,0.00
2022-11-30T00:42:52.903Z,0.00
2022-11-30T00:43:53.084Z,0.00
2022-11-30T00:44:53.290Z,0.00
2022-11-30T00:45:53.478Z,0.00
2022-11-30T00:46:53.604Z,0.00
2022-11-30T00:47:53.782Z,0.00
2022-11-30T00:48:53.963Z,0.00
2022-11-30T00:49:54.141Z,0.00
2022-11-30T00:50:54.322Z,0.00
2022-11-30T00:51:54.524Z,0.00
2022-11-30T00:52:54.680Z,0.00
2022-11-30T00:53:54.852Z,0.00
2022-11-30T00:54:55.061Z,0.00
2022-11-30T00:55:55.201Z,0.00
2022-11-30T00:56:55.382Z,0.00
2022-11-30T00:57:55.562Z,0.00
2022-11-30T00:58:55.762Z,0.00
2022-11-30T00:59:55.922Z,0.00
2022-11-30T01:00:56.156Z,0.00
2022-11-30T01:01:56.250Z,0.00
2022-11-30T01:02:56.431Z,0.00
2022-11-30T01:03:56.628Z,0.00
2022-11-30T01:04:56.780Z,0.00
2022-11-30T01:05:56.972Z,0.00
2022-11-30T01:06:57.120Z,0.00
2022-11-30T01:07:57.340Z,0.00
2022-11-30T01:08:57.480Z,0.00
2022-11-30T01:09:57.660Z,0.00
2022-11-30T01:10:57.874Z,0.00
2022-11-30T01:11:58.034Z,0.00
2022-11-30T01:12:58.223Z,0.00
2022-11-30T01:13:58.403Z,0.00
2022-11-30T01:14:58.589Z,0.00
2022-11-30T01:15:58.806Z,0.00
2022-11-30T01:16:58.989Z,0.00
2022-11-30T01:17:59.144Z,0.00
2022-11-30T01:18:59.309Z,0.00
2022-11-30T01:19:59.692Z,0.00
2022-11-30T01:20:59.760Z,0.00
2022-11-30T01:21:59.869Z,0.00
2022-11-30T01:23:00.063Z,0.00
2022-11-30T01:24:00.243Z,0.00
2022-11-30T01:25:00.436Z,0.00
2022-11-30T01:26:00.703Z,0.00
2022-11-30T01:27:00.753Z,0.00
2022-11-30T01:28:00.939Z,0.00
2022-11-30T01:29:01.129Z,0.00
2022-11-30T01:30:01.328Z,0.00
2022-11-30T01:31:01.528Z,0.00
2022-11-30T01:32:01.660Z,0.00
2022-11-30T01:33:01.840Z,0.00
2022-11-30T01:34:02.018Z,0.00
2022-11-30T01:35:02.199Z,0.00
2022-11-30T01:36:02.399Z,0.00
2022-11-30T01:37:02.547Z,0.00
2022-11-30T01:38:02.725Z,0.00
2022-11-30T01:39:02.897Z,0.00
2022-11-30T01:40:03.098Z,0.00
2022-11-30T01:41:03.247Z,0.00
2022-11-30T01:42:03.454Z,0.00
2022-11-30T01:43:03.598Z,0.00
2022-11-30T01:44:03.779Z,0.00
2022-11-30T01:45:03.971Z,0.00
2022-11-30T01:46:04.182Z,0.00
2022-11-30T01:47:04.277Z,0.00
2022-11-30T01:48:04.476Z,0.00
2022-11-30T01:49:04.619Z,0.00
2022-11-30T01:50:04.824Z,0.00
2022-11-30T01:51:04.947Z,0.00
2022-11-30T01:52:05.143Z,0.00
2022-11-30T01:53:05.318Z,0.00
2022-11-30T01:54:05.497Z,0.00
2022-11-30T01:55:05.708Z,0.00
2022-11-30T01:56:05.856Z,0.00
2022-11-30T01:57:06.026Z,0.00
2022-11-30T01:58:06.207Z,0.00
2022-11-30T01:59:06.396Z,0.00
2022-11-30T02:00:06.586Z,0.00
2022-11-30T02:01:06.806Z,0.00
2022-11-30T02:02:06.966Z,0.00
2022-11-30T02:03:07.151Z,0.00
2022-11-30T02:04:07.292Z,0.00
2022-11-30T02:05:07.486Z,0.00
2022-11-30T02:06:07.633Z,0.00
2022-11-30T02:07:07.881Z,0.00
2022-11-30T02:08:08.064Z,0.00
2022-11-30T02:09:08.166Z,0.00
2022-11-30T02:10:08.375Z,0.00
2022-11-30T02:11:08.515Z,0.00
2022-11-30T02:12:08.697Z,0.00
2022-11-30T02:13:08.891Z,0.00
2022-11-30T02:14:09.047Z,0.00
2022-11-30T02:15:09.244Z,0.00
2022-11-30T02:16:09.445Z,0.00
2022-11-30T02:17:09.585Z,0.00
2022-11-30T02:18:09.765Z,0.00
2022-11-30T02:19:09.953Z,0.00
2022-11-30T02:20:10.134Z,0.00
2022-11-30T02:21:10.324Z,0.00
2022-11-30T02:22:10.506Z,0.00
2022-11-30T02:23:10.707Z,0.00
2022-11-30T02:24:10.856Z,0.00
2022-11-30T02:25:11.047Z,0.00
2022-11-30T02:26:11.194Z,0.00
2022-11-30T02:27:11.353Z,0.00
2022-11-30T02:28:11.533Z,0.00
2022-11-30T02:29:11.713Z,0.00
2022-11-30T02:30:11.897Z,0.00
2022-11-30T02:31:12.196Z,0.00
2022-11-30T02:32:12.284Z,0.00
2022-11-30T02:33:12.463Z,0.00
2022-11-30T02:34:12.633Z,0.00
2022-11-30T02:35:12.833Z,0.00
2022-11-30T02:36:12.991Z,0.00
2022-11-30T02:37:13.182Z,0.00
2022-11-30T02:38:13.358Z,0.00
2022-11-30T02:39:13.534Z,0.00
2022-11-30T02:40:13.738Z,0.00
2022-11-30T02:41:13.889Z,0.00
2022-11-30T02:42:14.066Z,0.00
2022-11-30T02:43:14.240Z,0.00
2022-11-30T02:44:14.414Z,0.00
2022-11-30T02:45:14.621Z,0.00
2022-11-30T02:46:14.816Z,0.00
2022-11-30T02:47:14.961Z,0.00
2022-11-30T02:48:15.145Z,0.00
2022-11-30T02:49:15.331Z,0.00
2022-11-30T02:50:15.532Z,0.00
2022-11-30T02:51:15.705Z,0.00
2022-11-30T02:52:15.837Z,0.00
2022-11-30T02:53:16.011Z,0.00
2022-11-30T02:54:16.210Z,0.00
2022-11-30T02:55:16.390Z,0.00
2022-11-30T02:56:16.582Z,0.00
2022-11-30T02:57:16.760Z,0.00
2022-11-30T02:58:16.947Z,0.00
2022-11-30T02:59:17.121Z,0.00
2022-11-30T03:00:17.299Z,0.00
2022-11-30T03:01:17.535Z,0.00
2022-11-30T03:02:17.718Z,0.00
2022-11-30T03:03:17.849Z,0.00
2022-11-30T03:04:17.990Z,0.00
2022-11-30T03:05:18.193Z,0.00
2022-11-30T03:06:18.352Z,0.00
2022-11-30T03:07:18.612Z,0.00
2022-11-30T03:08:18.684Z,0.00
2022-11-30T03:09:18.860Z,0.00
2022-11-30T03:10:19.040Z,0.00
2022-11-30T03:11:19.240Z,0.00
2022-11-30T03:12:19.381Z,0.00
2022-11-30T03:13:19.560Z,0.00
2022-11-30T03:14:19.760Z,0.00
2022-11-30T03:15:19.911Z,0.00
2022-11-30T03:16:20.137Z,0.00
2022-11-30T03:17:20.269Z,0.00
2022-11-30T03:18:20.449Z,0.00
2022-11-30T03:19:20.629Z,0.00
2022-11-30T03:20:20.828Z,0.00
2022-11-30T03:21:20.981Z,0.00
2022-11-30T03:22:21.150Z,0.00
2022-11-30T03:23:22.304Z,0.00
2022-11-30T03:24:21.509Z,0.00
2022-11-30T03:25:21.708Z,0.00
2022-11-30T03:26:21.858Z,0.00
2022-11-30T03:27:22.037Z,0.00
2022-11-30T03:28:22.218Z,0.00
2022-11-30T03:29:22.400Z,0.00
2022-11-30T03:30:22.598Z,0.00
2022-11-30T03:31:22.789Z,0.00
2022-11-30T03:32:22.937Z,0.00
2022-11-30T03:33:23.069Z,0.00
2022-11-30T03:34:23.248Z,0.00
2022-11-30T03:35:23.448Z,0.00
2022-11-30T03:36:23.608Z,0.00
2022-11-30T03:37:23.790Z,0.00
2022-11-30T03:38:23.967Z,0.00
2022-11-30T03:39:24.150Z,0.00
2022-11-30T03:40:24.348Z,0.00
2022-11-30T03:41:24.497Z,0.00
2022-11-30T03:42:24.667Z,0.00
2022-11-30T03:43:24.877Z,0.00
2022-11-30T03:44:25.028Z,0.00
2022-11-30T03:45:25.206Z,0.00
2022-11-30T03:46:25.413Z,0.00
2022-11-30T03:47:25.578Z,0.00
2022-11-30T03:48:25.758Z,0.00
2022-11-30T03:49:25.936Z,0.00
2022-11-30T03:50:26.145Z,0.00
2022-11-30T03:51:26.294Z,0.00
2022-11-30T03:52:26.476Z,0.00
2022-11-30T03:53:26.656Z,0.00
2022-11-30T03:54:26.836Z,0.00
2022-11-30T03:55:27.047Z,0.00
2022-11-30T03:56:27.231Z,0.00
2022-11-30T03:57:27.380Z,0.00
2022-11-30T03:58:27.555Z,0.00
2022-11-30T03:59:27.734Z,0.00
2022-11-30T04:00:27.916Z,0.00
2022-11-30T04:01:28.244Z,0.00
2022-11-30T04:02:28.342Z,0.00
2022-11-30T04:03:28.465Z,0.00
2022-11-30T04:04:28.655Z,0.00
2022-11-30T04:05:28.861Z,0.00
2022-11-30T04:06:28.996Z,0.00
2022-11-30T04:07:29.195Z,0.00
2022-11-30T04:08:29.354Z,0.00
2022-11-30T04:09:29.534Z,0.00
2022-11-30T04:10:29.743Z,0.00
2022-11-30T04:11:29.885Z,0.00
2022-11-30T04:12:30.063Z,0.00
2022-11-30T04:13:30.249Z,0.00
2022-11-30T04:14:30.415Z,0.00
2022-11-30T04:15:30.617Z,0.00
2022-11-30T04:16:30.793Z,0.00
2022-11-30T04:17:30.956Z,0.00
2022-11-30T04:18:31.131Z,0.00
2022-11-30T04:19:31.303Z,0.00
2022-11-30T04:20:32.311Z,0.00
2022-11-30T04:21:31.703Z,0.00
2022-11-30T04:22:31.833Z,0.00
2022-11-30T04:23:32.012Z,0.00
2022-11-30T04:24:32.193Z,0.00
2022-11-30T04:25:32.384Z,0.00
2022-11-30T04:26:32.535Z,0.00
2022-11-30T04:27:32.723Z,0.00
2022-11-30T04:28:32.913Z,0.00
2022-11-30T04:29:33.082Z,0.00
2022-11-30T04:30:33.306Z,0.00
2022-11-30T04:31:33.494Z,0.00
2022-11-30T04:32:33.614Z,0.00
2022-11-30T04:33:33.796Z,0.00
2022-11-30T04:34:33.992Z,0.00
2022-11-30T04:35:34.162Z,0.00
2022-11-30T04:36:34.302Z,0.00
2022-11-30T04:37:34.486Z,0.00
2022-11-30T04:38:34.671Z,0.00
2022-11-30T04:39:34.832Z,0.00
2022-11-30T04:40:35.011Z,0.00
2022-11-30T04:41:35.199Z,0.00
2022-11-30T04:42:35.391Z,0.00
2022-11-30T04:43:35.538Z,0.00
2022-11-30T04:44:35.711Z,0.00
2022-11-30T04:45:35.944Z,0.00
2022-11-30T04:46:36.088Z,0.00
2022-11-30T04:47:36.220Z,0.00
2022-11-30T04:48:36.391Z,0.00
2022-11-30T04:49:36.580Z,0.00
2022-11-30T04:50:36.748Z,0.00
2022-11-30T04:51:36.903Z,0.00
2022-11-30T04:52:37.067Z,0.00
2022-11-30T04:53:37.244Z,0.00
2022-11-30T04:54:37.420Z,0.00
2022-11-30T04:55:37.630Z,0.00
2022-11-30T04:56:37.770Z,0.00
2022-11-30T04:57:37.962Z,0.00
2022-11-30T04:58:38.139Z,0.00
2022-11-30T04:59:38.319Z,0.00
2022-11-30T05:00:38.519Z,0.00
2022-11-30T05:01:38.717Z,0.00
2022-11-30T05:02:38.838Z,0.00
2022-11-30T05:03:39.019Z,0.00
2022-11-30T05:04:39.251Z,0.00
2022-11-30T05:05:39.429Z,0.00
2022-11-30T05:06:39.518Z,0.00
2022-11-30T05:07:39.744Z,0.00
2022-11-30T05:08:39.890Z,0.00
2022-11-30T05:09:40.077Z,0.00
2022-11-30T05:10:40.286Z,0.00
2022-11-30T05:11:40.428Z,0.00
2022-11-30T05:12:40.620Z,0.00
2022-11-30T05:13:40.798Z,0.00
2022-11-30T05:14:40.978Z,0.00
2022-11-30T05:15:41.169Z,0.00
2022-11-30T05:16:41.340Z,0.00
2022-11-30T05:17:41.498Z,0.00
2022-11-30T05:18:41.647Z,0.00
2022-11-30T05:19:41.827Z,0.00
2022-11-30T05:20:42.037Z,0.00
2022-11-30T05:21:45.632Z,0.00
2022-11-30T05:22:42.337Z,0.00
2022-11-30T05:23:42.518Z,0.00
2022-11-30T05:24:42.697Z,0.00
2022-11-30T05:25:42.888Z,0.00
2022-11-30T05:26:43.027Z,0.00
2022-11-30T05:27:43.208Z,0.00
2022-11-30T05:28:43.404Z,0.00
2022-11-30T05:29:43.550Z,0.00
2022-11-30T05:30:43.738Z,0.00
2022-11-30T05:31:43.991Z,0.00
2022-11-30T05:32:44.066Z,0.00
2022-11-30T05:33:44.260Z,0.00
2022-11-30T05:34:50.668Z,0.00
2022-11-30T05:35:45.619Z,0.00
2022-11-30T05:36:44.777Z,0.00
2022-11-30T05:37:44.958Z,0.00
2022-11-30T05:38:45.130Z,0.00
2022-11-30T05:39:45.308Z,0.00
2022-11-30T05:40:45.515Z,0.00
2022-11-30T05:41:45.713Z,0.00
2022-11-30T05:42:45.826Z,0.00
2022-11-30T05:43:46.005Z,0.00
2022-11-30T05:44:46.393Z,0.00
2022-11-30T05:45:46.364Z,0.00
2022-11-30T05:46:46.554Z,0.00
2022-11-30T05:47:46.696Z,0.00
2022-11-30T05:48:46.865Z,0.00
2022-11-30T05:49:47.065Z,0.00
2022-11-30T05:50:47.224Z,0.00
2022-11-30T05:51:47.406Z,0.00
2022-11-30T05:52:47.576Z,0.00
2022-11-30T05:53:47.852Z,0.00
2022-11-30T05:54:48.249Z,0.00
2022-11-30T05:55:48.134Z,0.00
2022-11-30T05:56:53.102Z,0.00
2022-11-30T05:57:49.454Z,0.00
2022-11-30T05:58:48.636Z,0.00
2022-11-30T05:59:48.784Z,0.00
2022-11-30T06:00:48.974Z,0.00
2022-11-30T06:01:49.352Z,0.00
2022-11-30T06:02:49.422Z,0.00
2022-11-30T06:03:49.504Z,0.00
2022-11-30T06:04:49.896Z,0.00
2022-11-30T06:05:49.864Z,0.00
2022-11-30T06:06:50.026Z,0.00
2022-11-30T06:07:50.218Z,0.00
2022-11-30T06:08:50.342Z,0.00
2022-11-30T06:09:51.482Z,0.00
2022-11-30T06:10:50.759Z,0.00
2022-11-30T06:11:50.883Z,0.00
2022-11-30T06:12:51.063Z,0.00
2022-11-30T06:13:51.242Z,0.00
2022-11-30T06:14:51.426Z,0.00
2022-11-30T06:15:51.639Z,0.00
2022-11-30T06:16:51.799Z,0.00
2022-11-30T06:17:51.970Z,0.00
2022-11-30T06:18:52.142Z,0.00
2022-11-30T06:19:52.322Z,0.00
2022-11-30T06:20:52.524Z,0.00
2022-11-30T06:21:52.682Z,0.00
2022-11-30T06:22:52.849Z,0.00
2022-11-30T06:23:53.038Z,0.00
2022-11-30T06:24:53.221Z,0.00
2022-11-30T06:25:53.437Z,0.00
2022-11-30T06:26:53.571Z,0.00
2022-11-30T06:27:53.751Z,4.00
2022-11-30T06:28:53.943Z,4.00
2022-11-30T06:29:54.111Z,4.00
2022-11-30T06:30:54.301Z,0.00
2022-11-30T06:31:54.578Z,4.00
2022-11-30T06:32:54.651Z,4.00
2022-11-30T06:33:54.830Z,4.00
2022-11-30T06:34:55.000Z,4.00
2022-11-30T06:35:55.191Z,8.00
2022-11-30T06:36:55.368Z,8.00
2022-11-30T06:37:55.572Z,8.00
2022-11-30T06:38:55.730Z,8.00
2022-11-30T06:40:06.579Z,12.00
2022-11-30T06:40:57.129Z,12.00
2022-11-30T06:41:56.261Z,12.00
2022-11-30T06:42:56.429Z,12.00
2022-11-30T06:43:56.589Z,20.00
2022-11-30T06:44:56.760Z,20.00
2022-11-30T06:45:56.976Z,20.00
2022-11-30T06:46:57.173Z,20.00
2022-11-30T06:47:57.299Z,28.00
2022-11-30T06:48:58.309Z,28.00
2022-11-30T06:49:57.629Z,28.00
2022-11-30T06:50:57.826Z,32.00
2022-11-30T06:51:58.000Z,36.00
2022-11-30T06:52:58.129Z,40.00
2022-11-30T06:53:58.289Z,40.00
2022-11-30T06:54:58.468Z,44.00
2022-11-30T06:55:58.618Z,48.00
2022-11-30T06:56:58.800Z,52.00
2022-11-30T06:57:58.969Z,60.00
2022-11-30T06:58:59.147Z,64.00
2022-11-30T06:59:59.307Z,72.00
2022-11-30T07:00:59.514Z,76.00
2022-11-30T07:02:02.887Z,80.00
2022-11-30T07:03:00.819Z,88.00
2022-11-30T07:04:00.055Z,96.00
2022-11-30T07:05:00.180Z,104.00
2022-11-30T07:06:00.363Z,108.00
2022-11-30T07:07:00.579Z,120.00
2022-11-30T07:08:00.823Z,132.00
2022-11-30T07:09:00.940Z,144.00
2022-11-30T07:10:01.077Z,152.00
2022-11-30T07:11:01.256Z,164.00
2022-11-30T07:12:01.429Z,172.00
2022-11-30T07:13:01.585Z,180.00
2022-11-30T07:14:01.758Z,184.00
2022-11-30T07:15:01.927Z,192.00
2022-11-30T07:16:02.140Z,196.00
2022-11-30T07:17:02.291Z,204.00
2022-11-30T07:18:02.427Z,216.00
2022-11-30T07:19:02.606Z,224.00
2022-11-30T07:20:02.784Z,228.00
2022-11-30T07:21:02.974Z,236.00
2022-11-30T07:22:03.126Z,244.00
2022-11-30T07:23:03.304Z,248.00
2022-11-30T07:24:03.450Z,260.00
2022-11-30T07:25:03.606Z,272.00
2022-11-30T07:26:03.765Z,280.00
2022-11-30T07:27:03.965Z,296.00
2022-11-30T07:28:04.088Z,308.00
2022-11-30T07:29:04.266Z,320.00
2022-11-30T07:30:04.426Z,332.00
2022-11-30T07:31:04.616Z,336.00
2022-11-30T07:32:04.877Z,348.00
2022-11-30T07:33:04.947Z,356.00
2022-11-30T07:34:05.131Z,364.00
2022-11-30T07:35:05.298Z,372.00
2022-11-30T07:36:05.474Z,380.00
2022-11-30T07:37:05.655Z,388.00
2022-11-30T07:38:09.754Z,396.00
2022-11-30T07:39:06.017Z,408.00
2022-11-30T07:40:06.144Z,424.00
2022-11-30T07:41:06.326Z,448.00
2022-11-30T07:42:06.516Z,472.00
2022-11-30T07:43:06.656Z,508.00
2022-11-30T07:44:06.820Z,540.00
2022-11-30T07:45:07.036Z,576.00
2022-11-30T07:46:07.250Z,604.00
2022-11-30T07:47:07.333Z,628.00
2022-11-30T07:48:07.474Z,648.00
2022-11-30T07:49:07.634Z,660.00
2022-11-30T07:50:07.803Z,668.00
2022-11-30T07:51:07.973Z,668.00
2022-11-30T07:52:08.153Z,664.00
2022-11-30T07:53:08.316Z,660.00
2022-11-30T07:54:08.483Z,652.00
2022-11-30T07:55:08.654Z,648.00
2022-11-30T07:56:08.814Z,648.00
2022-11-30T07:57:08.994Z,648.00
2022-11-30T07:58:12.869Z,660.00
2022-11-30T07:59:10.336Z,672.00
2022-11-30T08:00:09.479Z,680.00
2022-11-30T08:01:09.752Z,700.00
2022-11-30T08:02:09.972Z,712.00
2022-11-30T08:03:09.995Z,728.00
2022-11-30T08:04:10.163Z,744.00
2022-11-30T08:05:10.313Z,764.00
2022-11-30T08:06:10.483Z,776.00
2022-11-30T08:07:10.672Z,780.00
2022-11-30T08:08:10.834Z,780.00
2022-11-30T08:09:10.994Z,780.00
2022-11-30T08:10:11.164Z,788.00
2022-11-30T08:11:11.343Z,800.00
2022-11-30T08:12:11.512Z,824.00
2022-11-30T08:13:11.681Z,840.00
2022-11-30T08:14:11.835Z,852.00
2022-11-30T08:15:19.963Z,852.00
2022-11-30T08:16:13.200Z,852.00
2022-11-30T08:17:12.352Z,856.00
2022-11-30T08:18:12.501Z,864.00
2022-11-30T08:19:12.682Z,880.00
2022-11-30T08:20:12.842Z,904.00
2022-11-30T08:21:13.011Z,916.00
2022-11-30T08:22:13.191Z,924.00
2022-11-30T08:23:13.352Z,924.00
2022-11-30T08:24:13.582Z,916.00
2022-11-30T08:25:13.701Z,912.00
2022-11-30T08:26:13.883Z,920.00
2022-11-30T08:27:14.061Z,936.00
2022-11-30T08:28:14.198Z,964.00
2022-11-30T08:29:14.390Z,988.00
2022-11-30T08:30:14.542Z,1012.00
2022-11-30T08:31:14.829Z,1032.00
2022-11-30T08:32:14.922Z,1052.00
2022-11-30T08:33:15.050Z,1064.00
2022-11-30T08:34:15.260Z,1076.00
2022-11-30T08:35:15.420Z,1096.00
2022-11-30T08:36:15.559Z,1120.00
2022-11-30T08:37:15.771Z,1148.00
2022-11-30T08:38:15.946Z,1184.00
2022-11-30T08:39:16.091Z,1232.00
2022-11-30T08:40:16.239Z,1288.00
2022-11-30T08:41:16.422Z,1348.00
2022-11-30T08:42:16.609Z,1416.00
2022-11-30T08:43:16.783Z,1480.00
2022-11-30T08:44:16.946Z,1528.00
2022-11-30T08:45:17.109Z,1568.00
2022-11-30T08:46:49.200Z,1604.00
2022-11-30T08:47:18.520Z,1636.00
2022-11-30T08:48:17.619Z,1668.00
2022-11-30T08:49:22.503Z,1704.00
2022-11-30T08:50:18.972Z,1732.00
2022-11-30T08:51:18.151Z,1760.00
2022-11-30T08:52:18.957Z,1796.00
2022-11-30T08:53:18.534Z,1832.00
2022-11-30T08:54:18.658Z,1868.00
2022-11-30T08:55:18.831Z,1900.00
2022-11-30T08:56:18.999Z,1940.00
2022-11-30T08:57:19.187Z,1976.00
2022-11-30T08:58:19.335Z,2020.00
2022-11-30T08:59:19.499Z,2056.00
2022-11-30T09:00:19.665Z,2096.00
2022-11-30T09:01:19.838Z,2144.00
2022-11-30T09:02:20.139Z,2200.00
2022-11-30T09:03:20.177Z,2260.00
2022-11-30T09:04:20.350Z,2332.00
2022-11-30T09:05:20.527Z,2412.00
2022-11-30T09:06:20.690Z,2488.00
2022-11-30T09:07:21.101Z,2584.00
2022-11-30T09:08:21.045Z,2676.00
2022-11-30T09:09:21.207Z,2764.00
2022-11-30T09:10:21.436Z,2872.00
2022-11-30T09:11:21.566Z,2968.00
2022-11-30T09:12:21.747Z,3060.00
2022-11-30T09:13:21.929Z,3148.00
2022-11-30T09:14:22.076Z,3220.00
2022-11-30T09:15:22.250Z,3272.00
2022-11-30T09:16:22.455Z,3296.00
2022-11-30T09:17:22.620Z,3296.00
2022-11-30T09:18:22.776Z,3296.00
2022-11-30T09:19:22.966Z,3320.00
2022-11-30T09:20:23.098Z,3384.00
2022-11-30T09:21:23.267Z,3492.00
2022-11-30T09:22:23.445Z,3600.00
2022-11-30T09:23:23.625Z,3692.00
2022-11-30T09:24:23.793Z,3752.00
2022-11-30T09:25:23.956Z,3768.00
2022-11-30T09:26:24.125Z,3760.00
2022-11-30T09:27:24.306Z,3728.00
2022-11-30T09:28:24.465Z,3688.00
2022-11-30T09:29:24.626Z,3668.00
2022-11-30T09:30:24.902Z,3656.00
2022-11-30T09:31:24.974Z,3664.00
2022-11-30T09:32:25.155Z,3704.00
2022-11-30T09:33:25.356Z,3744.00
2022-11-30T09:34:25.528Z,3776.00
2022-11-30T09:35:25.689Z,3792.00
2022-11-30T09:36:25.855Z,3808.00
2022-11-30T09:37:26.078Z,3836.00
2022-11-30T09:38:26.216Z,3864.00
2022-11-30T09:39:26.397Z,3900.00
2022-11-30T09:40:29.885Z,3960.00
2022-11-30T09:41:27.747Z,3992.00
2022-11-30T09:42:27.091Z,4004.00
2022-11-30T09:43:27.134Z,4020.00
2022-11-30T09:44:27.316Z,4044.00
2022-11-30T09:45:27.478Z,4052.00
2022-11-30T09:46:27.725Z,4068.00
2022-11-30T09:47:31.933Z,4060.00
2022-11-30T09:48:27.982Z,4024.00
2022-11-30T09:49:28.144Z,3988.00
2022-11-30T09:50:28.323Z,3960.00
2022-11-30T09:51:28.494Z,3952.00
2022-11-30T09:52:28.675Z,3928.00
2022-11-30T09:53:29.894Z,3900.00
2022-11-30T09:54:29.027Z,3880.00
2022-11-30T09:55:29.213Z,3860.00
2022-11-30T09:56:29.378Z,3844.00
2022-11-30T09:57:29.563Z,3832.00
2022-11-30T09:58:29.750Z,3812.00
2022-11-30T09:59:29.923Z,3812.00
2022-11-30T10:00:30.109Z,3832.00
2022-11-30T10:01:32.805Z,3856.00
2022-11-30T10:02:30.624Z,3864.00
2022-11-30T10:03:30.718Z,3868.00
2022-11-30T10:04:30.865Z,3868.00
2022-11-30T10:05:31.013Z,3864.00
2022-11-30T10:06:31.191Z,3880.00
2022-11-30T10:07:31.424Z,3912.00
2022-11-30T10:08:31.523Z,3956.00
2022-11-30T10:09:31.713Z,4016.00
2022-11-30T10:10:33.096Z,4100.00
2022-11-30T10:11:32.063Z,4192.00
2022-11-30T10:12:32.254Z,4268.00
2022-11-30T10:13:32.405Z,4336.00
2022-11-30T10:14:32.610Z,4400.00
2022-11-30T10:15:32.840Z,4432.00
2022-11-30T10:16:33.020Z,4464.00
2022-11-30T10:17:33.226Z,4496.00
2022-11-30T10:18:33.322Z,4488.00
2022-11-30T10:19:33.502Z,4480.00
2022-11-30T10:20:33.683Z,4472.00
2022-11-30T10:21:33.852Z,4488.00
2022-11-30T10:22:34.051Z,4472.00
2022-11-30T10:23:34.213Z,4460.00
2022-11-30T10:24:34.382Z,4456.00
2022-11-30T10:25:34.561Z,4472.00
2022-11-30T10:26:34.767Z,4512.00
2022-11-30T10:27:34.947Z,4572.00
2022-11-30T10:28:50.683Z,4644.00
2022-11-30T10:29:36.302Z,4708.00
2022-11-30T10:30:35.473Z,4760.00
2022-11-30T10:31:35.738Z,4796.00
2022-11-30T10:32:35.867Z,4844.00
2022-11-30T10:33:38.649Z,4904.00
2022-11-30T10:34:36.215Z,4960.00
2022-11-30T10:35:36.399Z,5012.00
2022-11-30T10:36:36.571Z,5056.00
2022-11-30T10:37:36.761Z,5096.00
2022-11-30T10:38:36.943Z,5140.00
2022-11-30T10:39:37.121Z,5168.00
2022-11-30T10:40:37.301Z,5160.00
2022-11-30T10:41:37.487Z,5108.00
2022-11-30T10:42:37.728Z,4984.00
2022-11-30T10:43:37.811Z,4824.00
2022-11-30T10:44:37.983Z,4688.00
2022-11-30T10:45:38.151Z,4616.00
2022-11-30T10:46:38.410Z,4584.00
2022-11-30T10:47:38.541Z,4564.00
2022-11-30T10:48:38.681Z,4544.00
2022-11-30T10:49:38.860Z,4544.00
2022-11-30T10:50:39.031Z,4572.00
2022-11-30T10:51:39.208Z,4600.00
2022-11-30T10:52:39.401Z,4660.00
2022-11-30T10:53:39.562Z,4660.00
2022-11-30T10:54:39.742Z,4648.00
2022-11-30T10:55:39.918Z,4640.00
2022-11-30T10:56:40.116Z,4636.00
2022-11-30T10:57:40.291Z,4636.00
2022-11-30T10:58:40.461Z,4620.00
2022-11-30T10:59:40.631Z,4592.00
2022-11-30T11:00:40.810Z,4560.00
2022-11-30T11:01:41.037Z,4516.00
2022-11-30T11:02:41.233Z,4472.00
2022-11-30T11:03:41.426Z,4444.00
2022-11-30T11:04:41.529Z,4412.00
2022-11-30T11:05:41.688Z,4376.00
2022-11-30T11:06:41.908Z,4336.00
2022-11-30T11:07:42.076Z,4300.00
2022-11-30T11:08:42.204Z,4280.00
2022-11-30T11:09:42.380Z,4252.00
2022-11-30T11:10:42.554Z,4244.00
2022-11-30T11:11:42.721Z,4244.00
2022-11-30T11:12:42.910Z,4268.00
2022-11-30T11:13:43.094Z,4268.00
2022-11-30T11:14:43.258Z,4296.00
2022-11-30T11:15:43.495Z,4324.00
2022-11-30T11:16:43.595Z,4340.00
2022-11-30T11:17:43.820Z,4332.00
2022-11-30T11:18:43.940Z,4312.00
2022-11-30T11:19:44.138Z,4284.00
2022-11-30T11:20:44.299Z,4244.00
2022-11-30T11:21:44.470Z,4204.00
2022-11-30T11:22:44.650Z,4156.00
2022-11-30T11:23:44.854Z,4104.00
2022-11-30T11:24:45.010Z,4052.00
2022-11-30T11:25:45.167Z,4024.00
2022-11-30T11:26:45.351Z,3996.00
2022-11-30T11:27:45.562Z,3996.00
2022-11-30T11:28:45.719Z,3980.00
2022-11-30T11:29:46.282Z,3952.00
2022-11-30T11:30:46.125Z,3944.00
2022-11-30T11:31:46.258Z,3924.00
2022-11-30T11:32:46.533Z,3920.00
2022-11-30T11:33:47.558Z,3912.00
2022-11-30T11:34:51.100Z,3884.00
2022-11-30T11:35:46.950Z,3844.00
2022-11-30T11:36:47.129Z,3796.00
2022-11-30T11:37:47.310Z,3728.00
2022-11-30T11:38:47.499Z,3672.00
2022-11-30T11:39:47.992Z,3640.00
2022-11-30T11:40:47.826Z,3620.00
2022-11-30T11:41:47.991Z,3600.00
2022-11-30T11:42:48.258Z,3604.00
2022-11-30T11:43:48.366Z,3612.00
2022-11-30T11:44:48.549Z,3612.00
2022-11-30T11:45:48.719Z,3600.00
2022-11-30T11:46:48.936Z,3596.00
2022-11-30T11:47:49.088Z,3584.00
2022-11-30T11:48:49.249Z,3584.00
2022-11-30T11:49:49.630Z,3600.00
2022-11-30T11:51:06.225Z,3588.00
2022-11-30T11:51:50.765Z,3572.00
2022-11-30T11:52:49.988Z,3564.00
2022-11-30T11:53:53.583Z,3540.00
2022-11-30T11:54:50.308Z,3496.00
2022-11-30T11:55:50.545Z,3468.00
2022-11-30T11:56:50.646Z,3400.00
2022-11-30T11:57:50.924Z,3292.00
2022-11-30T11:58:51.021Z,3184.00
2022-11-30T11:59:51.178Z,3160.00
2022-11-30T12:01:01.147Z,3192.00
2022-11-30T12:01:52.527Z,3208.00
2022-11-30T12:02:51.776Z,3224.00
2022-11-30T12:03:51.915Z,3236.00
2022-11-30T12:04:52.078Z,3244.00
2022-11-30T12:05:52.248Z,3244.00
2022-11-30T12:06:52.420Z,3236.00
2022-11-30T12:07:52.656Z,3216.00
2022-11-30T12:08:52.772Z,3216.00
2022-11-30T12:09:52.954Z,3208.00
2022-11-30T12:10:53.516Z,3204.00
2022-11-30T12:11:53.327Z,3196.00
2022-11-30T12:12:54.806Z,3196.00
2022-11-30T12:13:53.652Z,3220.00
2022-11-30T12:14:53.817Z,3252.00
2022-11-30T12:15:54.020Z,3276.00
2022-11-30T12:16:54.180Z,3260.00
2022-11-30T12:17:54.373Z,3240.00
2022-11-30T12:18:54.801Z,3216.00
2022-11-30T12:19:54.726Z,3172.00
2022-11-30T12:20:55.065Z,3124.00
2022-11-30T12:21:55.099Z,3092.00
2022-11-30T12:22:55.383Z,3068.00
2022-11-30T12:23:55.455Z,3032.00
2022-11-30T12:24:55.644Z,3004.00
2022-11-30T12:25:55.825Z,3000.00
2022-11-30T12:26:56.002Z,3000.00
2022-11-30T12:27:56.188Z,2988.00
2022-11-30T12:28:56.354Z,2948.00
2022-11-30T12:29:56.565Z,2908.00
2022-11-30T12:30:56.747Z,2880.00
2022-11-30T12:31:56.895Z,2880.00
2022-11-30T12:32:57.075Z,2908.00
2022-11-30T12:33:57.287Z,2920.00
2022-11-30T12:34:57.437Z,2920.00
2022-11-30T12:35:57.598Z,2908.00
2022-11-30T12:36:57.809Z,2864.00
2022-11-30T12:37:57.946Z,2764.00
2022-11-30T12:38:58.170Z,2644.00
2022-11-30T12:39:58.320Z,2592.00
2022-11-30T12:40:58.514Z,2580.00
2022-11-30T12:41:58.677Z,2596.00
2022-11-30T12:42:58.855Z,2648.00
2022-11-30T12:43:59.017Z,2720.00
2022-11-30T12:44:59.203Z,2796.00
2022-11-30T12:45:59.362Z,2848.00
2022-11-30T12:46:59.630Z,2896.00
2022-11-30T12:47:59.737Z,2940.00
2022-11-30T12:48:59.983Z,2952.00